.
WxDataArchive / Data Records for 2010-03-16
2010-03-15 March 2010 2010-03-17

Data Records for Tuesday, 16 March 2010

Time	Temp	Chill	HIndex	Humid	Dewpt	 Wind 	HiWind	WindDir	Rain 	Barom 
-----	----	-----	------	-----	-----	------	------	-------	-----	----- 
00:00	40.8	40.8	40.8	89	37.8	0	2	270	0.00	30.141 
00:05	40.6	40.6	40.6	89	37.6	0	2	270	0.00	30.141 
00:10	40.6	40.6	40.6	89	37.6	0	2	270	0.00	30.141 
00:15	40.5	40.5	40.5	89	37.5	0	4	292	0.00	30.141 
00:20	40.5	40.5	40.5	89	37.5	0	2	292	0.00	30.141 
00:25	40.3	40.3	40.3	89	37.3	0	2	292	0.00	30.141 
00:30	40.1	40.1	40.1	89	37.1	0	1	292	0.00	30.144 
00:35	39.9	39.9	39.9	89	36.9	0	1	292	0.00	30.144 
00:40	39.8	39.8	39.8	89	36.8	0	1	292	0.00	30.144 
00:45	39.6	39.6	39.6	89	36.6	0	1	292	0.00	30.145 
00:50	39.6	39.6	39.6	90	36.9	0	2	292	0.00	30.145 
00:55	39.6	39.6	39.6	90	36.9	0	2	292	0.00	30.145 
01:00	39.6	39.6	39.6	90	36.9	0	1	292	0.00	30.145 
01:05	39.5	39.5	39.5	90	36.8	0	0	---	0.00	30.145 
01:10	39.2	39.2	39.2	90	36.5	0	0	---	0.00	30.145 
01:15	39.1	39.1	39.1	90	36.4	0	0	---	0.00	30.145 
01:20	38.9	38.9	38.9	90	36.2	0	0	---	0.00	30.145 
01:25	38.6	38.6	38.6	90	35.9	0	0	---	0.00	30.145 
01:30	38.5	38.5	38.5	90	35.8	0	0	---	0.00	30.145 
01:35	38.3	38.3	38.3	90	35.6	0	0	---	0.00	30.145 
01:40	38.2	38.2	38.2	90	35.5	0	0	---	0.00	30.145 
01:45	37.9	37.9	37.9	90	35.2	0	0	---	0.00	30.145 
01:50	37.8	37.8	37.8	90	35.1	0	0	---	0.00	30.145 
01:55	37.5	37.5	37.5	90	34.8	0	0	---	0.00	30.145 
02:00	37.5	37.5	37.5	91	35.1	0	1	292	0.00	30.145 
02:05	37.3	37.3	37.3	91	34.9	0	1	292	0.00	30.145 
02:10	37.2	37.2	37.2	91	34.8	0	0	---	0.00	30.145 
02:15	37.0	37.0	37.0	91	34.6	0	0	---	0.00	30.147 
02:20	36.8	36.8	36.8	91	34.4	0	0	---	0.00	30.147 
02:25	36.6	36.6	36.6	91	34.2	0	1	292	0.00	30.147 
02:30	36.3	36.3	36.3	91	33.9	0	2	292	0.00	30.147 
02:35	36.3	36.3	36.3	91	33.9	0	0	---	0.00	30.147 
02:40	36.2	36.2	36.2	91	33.8	0	0	---	0.00	30.147 
02:45	36.0	36.0	36.0	91	33.6	0	0	---	0.00	30.148 
02:50	35.9	35.9	35.9	91	33.5	0	0	---	0.00	30.148 
02:55	35.6	35.6	35.6	90	33.0	0	0	---	0.00	30.148 
03:00	35.3	35.3	35.3	90	32.7	0	0	---	0.00	30.147 
03:05	35.2	35.2	35.2	90	32.6	0	0	---	0.00	30.147 
03:10	34.9	34.9	34.9	90	32.3	0	0	---	0.00	30.147 
03:15	34.9	34.9	34.9	91	32.5	0	0	---	0.00	30.146 
03:20	34.7	34.7	34.7	91	32.3	0	0	---	0.00	30.146 
03:25	34.4	34.4	34.4	90	31.8	0	0	---	0.00	30.146 
03:30	34.1	34.1	34.1	91	31.8	0	2	292	0.00	30.146 
03:35	34.0	34.0	34.0	91	31.7	0	0	---	0.00	30.146 
03:40	33.7	33.7	33.7	91	31.4	0	0	---	0.00	30.146 
03:45	33.5	33.5	33.5	91	31.2	0	0	---	0.00	30.144 
03:50	33.2	33.2	33.2	91	30.9	0	0	---	0.00	30.144 
03:55	33.1	33.1	33.1	91	30.8	0	0	---	0.00	30.144 
04:00	32.9	32.9	32.9	91	30.6	0	0	---	0.00	30.141 
04:05	32.8	32.8	32.8	91	30.5	0	0	---	0.00	30.141 
04:10	32.7	32.7	32.7	91	30.4	0	0	---	0.00	30.141 
04:15	32.5	32.5	32.5	91	30.2	0	0	---	0.00	30.139 
04:20	32.4	32.4	32.4	91	30.1	0	0	---	0.00	30.139 
04:25	32.2	32.2	32.2	91	29.9	0	0	---	0.00	30.139 
04:30	32.1	32.1	32.1	91	29.8	0	0	---	0.00	30.140 
04:35	31.9	31.9	31.9	91	29.6	0	0	---	0.00	30.140 
04:40	31.9	31.9	31.9	91	29.6	0	0	---	0.00	30.140 
04:45	31.8	31.8	31.8	91	29.5	0	0	---	0.00	30.141 
04:50	31.6	31.6	31.6	91	29.3	0	0	---	0.00	30.141 
04:55	31.5	31.5	31.5	91	29.2	0	0	---	0.00	30.141 
05:00	31.5	31.5	31.5	91	29.2	0	0	---	0.00	30.142 
05:05	31.3	31.3	31.3	91	29.0	0	0	---	0.00	30.142 
05:10	31.3	31.3	31.3	91	29.0	0	0	---	0.00	30.142 
05:15	31.3	31.3	31.3	91	29.0	0	0	---	0.00	30.145 
05:20	31.2	31.2	31.2	91	28.9	0	0	---	0.00	30.145 
05:25	31.2	31.2	31.2	91	28.9	0	0	---	0.00	30.145 
05:30	31.2	31.2	31.2	91	28.9	0	0	---	0.00	30.147 
05:35	31.0	31.0	31.0	91	28.7	0	0	---	0.00	30.147 
05:40	31.0	31.0	31.0	90	28.4	0	0	---	0.00	30.147 
05:45	30.9	30.9	30.9	90	28.3	0	0	---	0.00	30.149 
05:50	30.7	30.7	30.7	90	28.1	0	0	---	0.00	30.149 
05:55	30.6	30.6	30.6	90	28.0	0	0	---	0.00	30.149 
06:00	30.4	30.4	30.4	90	27.8	0	0	---	0.00	30.154 
06:05	30.4	30.4	30.4	90	27.8	0	0	---	0.00	30.154 
06:10	30.3	30.3	30.3	90	27.7	0	0	---	0.00	30.154 
06:15	30.4	30.4	30.4	90	27.8	0	0	---	0.00	30.155 
06:20	30.3	30.3	30.3	90	27.7	0	0	---	0.00	30.155 
06:25	30.3	30.3	30.3	90	27.7	0	0	---	0.00	30.155 
06:30	30.1	30.1	30.1	90	27.5	0	0	---	0.00	30.155 
06:35	30.1	30.1	30.1	90	27.5	0	0	---	0.00	30.155 
06:40	30.1	30.1	30.1	90	27.5	0	0	---	0.00	30.155 
06:45	30.3	30.3	30.3	89	27.5	0	0	---	0.00	30.157 
06:50	30.3	30.3	30.3	89	27.5	0	0	---	0.00	30.157 
06:55	30.3	30.3	30.3	89	27.5	0	0	---	0.00	30.157 
07:00	30.3	30.3	30.3	89	27.5	0	0	---	0.00	30.158 
07:05	30.3	30.3	30.3	89	27.5	0	0	---	0.00	30.158 
07:10	30.3	30.3	30.3	88	27.2	0	0	---	0.00	30.158 
07:15	30.3	30.3	30.3	88	27.2	0	0	---	0.00	30.166 
07:20	30.4	30.4	30.4	88	27.3	0	0	---	0.00	30.166 
07:25	30.4	30.4	30.4	88	27.3	0	0	---	0.00	30.166 
07:30	30.4	30.4	30.4	88	27.3	0	0	---	0.00	30.170 
07:35	30.4	30.4	30.4	88	27.3	0	0	---	0.00	30.170 
07:40	30.4	30.4	30.4	88	27.3	0	0	---	0.00	30.170 
07:45	30.4	30.4	30.4	87	27.0	0	0	---	0.00	30.173 
07:50	30.4	30.4	30.4	87	27.0	0	0	---	0.00	30.173 
07:55	30.3	30.3	30.3	87	26.9	0	0	---	0.00	30.173 
08:00	30.3	30.3	30.3	87	26.9	0	0	---	0.00	30.177 
08:05	30.3	30.3	30.3	87	26.9	0	0	---	0.00	30.177 
08:10	30.4	30.4	30.4	87	27.0	0	0	---	0.00	30.177 
08:15	30.4	30.4	30.4	87	27.0	0	0	---	0.00	30.185 
08:20	30.6	30.6	30.6	87	27.2	0	0	---	0.00	30.185 
08:25	30.7	30.7	30.7	87	27.3	0	0	---	0.00	30.185 
08:30	30.9	30.9	30.9	87	27.5	0	0	---	0.00	30.189 
08:35	31.2	31.2	31.2	87	27.8	0	0	---	0.00	30.189 
08:40	31.8	31.8	31.8	86	28.1	0	0	---	0.00	30.189 
08:45	32.5	32.5	32.5	84	28.2	0	0	---	0.00	30.189 
08:50	33.1	33.1	33.1	83	28.5	0	0	---	0.00	30.189 
08:55	33.8	33.8	33.8	81	28.6	0	0	---	0.00	30.189 
09:00	34.7	34.7	34.7	79	28.9	0	0	---	0.00	30.187 
09:05	35.6	35.6	35.6	76	28.8	0	1	292	0.00	30.187 
09:10	36.3	36.3	36.3	71	27.8	0	1	292	0.00	30.187 
09:15	37.2	37.2	37.2	68	27.6	0	1	292	0.00	30.184 
09:20	38.0	38.0	38.0	68	28.4	0	1	292	0.00	30.184 
09:25	38.8	38.8	38.8	65	28.1	0	1	292	0.00	30.184 
09:30	39.5	39.5	39.5	63	28.0	0	1	292	0.00	30.185 
09:35	40.1	40.1	40.1	61	27.7	0	1	292	0.00	30.185 
09:40	40.8	40.8	40.8	59	27.6	0	0	---	0.00	30.185 
09:45	41.3	41.3	41.3	57	27.2	0	1	292	0.00	30.188 
09:50	41.9	41.9	41.9	53	26.0	0	1	292	0.00	30.188 
09:55	42.5	42.5	42.5	53	26.6	0	1	292	0.00	30.188 
10:00	42.9	42.9	42.9	50	25.6	0	2	292	0.00	30.189 
10:05	43.3	43.3	43.3	50	25.9	0	3	292	0.00	30.189 
10:10	44.1	44.1	44.1	52	27.6	0	2	292	0.00	30.189 
10:15	44.5	44.5	44.5	51	27.5	0	0	---	0.00	30.191 
10:20	45.2	45.2	45.2	47	26.2	0	1	292	0.00	30.191 
10:25	45.8	45.8	45.8	43	24.6	0	1	292	0.00	30.191 
10:30	46.5	46.5	46.5	44	25.8	0	0	---	0.00	30.190 
10:35	47.6	47.6	47.6	43	26.2	0	1	292	0.00	30.190 
10:40	48.3	48.3	48.3	43	26.9	0	0	---	0.00	30.190 
10:45	49.1	49.1	49.1	42	27.0	0	2	292	0.00	30.188 
10:50	49.4	49.4	49.4	41	26.7	0	0	---	0.00	30.188 
10:55	49.8	49.8	49.8	40	26.5	0	2	292	0.00	30.188 
11:00	50.4	50.4	50.4	38	25.8	0	1	292	0.00	30.185 
11:05	50.8	50.8	50.8	40	27.4	0	0	---	0.00	30.185 
11:10	51.0	51.0	51.0	37	25.7	0	2	292	0.00	30.185 
11:15	51.4	51.4	51.4	37	26.0	0	0	---	0.00	30.185 
11:20	51.7	51.7	51.7	40	28.2	0	1	292	0.00	30.185 
11:25	52.0	52.0	52.0	42	29.6	0	2	292	0.00	30.185 
11:30	52.6	52.6	52.6	39	28.4	0	2	292	0.00	30.184 
11:35	53.1	53.1	53.1	36	26.9	0	2	292	0.00	30.184 
11:40	53.5	53.5	53.5	39	29.2	0	1	292	0.00	30.184 
11:45	53.6	53.6	53.6	38	28.6	0	1	292	0.00	30.184 
11:50	53.6	53.6	53.6	36	27.3	1	3	292	0.00	30.184 
11:55	53.9	53.9	53.9	40	30.1	0	2	292	0.00	30.184 
12:00	54.5	54.5	54.5	39	30.1	0	2	292	0.00	30.184 
12:05	54.8	54.8	54.8	35	27.7	1	3	292	0.00	30.184 
12:10	55.3	55.3	55.3	35	28.1	0	1	292	0.00	30.184 
12:15	55.9	55.9	55.9	35	28.7	0	2	292	0.00	30.182 
12:20	56.3	56.3	56.3	34	28.3	0	1	292	0.00	30.182 
12:25	56.7	56.7	56.7	33	27.9	1	3	68	0.00	30.182 
12:30	57.0	57.0	57.0	36	30.3	1	3	68	0.00	30.182 
12:35	57.3	57.3	57.3	36	30.6	0	2	68	0.00	30.182 
12:40	57.8	57.8	57.8	35	30.3	1	2	68	0.00	30.182 
12:45	58.0	58.0	58.0	30	26.7	1	4	45	0.00	30.176 
12:50	58.1	58.1	58.1	27	24.3	0	4	68	0.00	30.176 
12:55	58.1	58.1	58.1	25	22.5	2	4	90	0.00	30.176 
13:00	58.4	58.4	58.4	28	25.4	1	3	112	0.00	30.172 
13:05	58.6	58.6	58.6	25	22.9	1	3	22	0.00	30.172 
13:10	58.9	58.9	58.9	27	25.0	1	3	68	0.00	30.172 
13:15	58.9	58.9	58.9	26	24.1	2	6	112	0.00	30.171 
13:20	59.0	59.0	59.0	28	25.9	1	3	45	0.00	30.171 
13:25	59.0	59.0	59.0	25	23.2	2	7	112	0.00	30.171 
13:30	59.0	59.0	59.0	24	22.3	1	4	45	0.00	30.170 
13:35	58.9	58.9	58.9	23	21.2	1	5	0	0.00	30.170 
13:40	59.2	59.2	59.2	25	23.4	1	5	45	0.00	30.170 
13:45	59.5	59.5	59.5	25	23.7	0	3	45	0.00	30.165 
13:50	59.5	59.5	59.5	26	24.6	2	7	112	0.00	30.165 
13:55	59.6	59.6	59.6	25	23.7	2	7	90	0.00	30.165 
14:00	59.5	59.5	59.5	30	28.0	2	7	112	0.00	30.157 
14:05	59.5	59.5	59.5	27	25.5	1	4	112	0.00	30.157 
14:10	59.8	59.8	59.8	28	26.6	2	6	112	0.00	30.157 
14:15	59.5	59.5	59.5	28	26.4	3	7	112	0.00	30.154 
14:20	59.5	59.5	59.5	30	28.0	2	5	112	0.00	30.154 
14:25	59.3	59.3	59.3	27	25.3	1	5	90	0.00	30.154 
14:30	59.6	59.6	59.6	28	26.5	0	2	0	0.00	30.149 
14:35	59.9	59.9	59.9	27	25.8	1	3	0	0.00	30.149 
14:40	60.2	60.2	60.2	27	26.1	1	3	112	0.00	30.149 
14:45	60.4	60.4	60.4	27	26.3	1	6	112	0.00	30.142 
14:50	60.4	60.4	60.4	28	27.1	2	6	90	0.00	30.142 
14:55	60.1	60.1	60.1	27	26.0	4	10	112	0.00	30.142 
15:00	59.9	59.9	59.9	28	26.7	2	7	112	0.00	30.139 
15:05	59.9	59.9	59.9	27	25.8	2	5	112	0.00	30.139 
15:10	59.9	59.9	59.9	27	25.8	1	6	135	0.00	30.139 
15:15	60.4	60.4	60.4	29	28.0	1	4	45	0.00	30.139 
15:20	60.5	60.5	60.5	27	26.4	1	4	45	0.00	30.139 
15:25	60.7	60.7	60.7	27	26.5	1	4	135	0.00	30.139 
15:30	60.5	60.5	60.5	28	27.2	3	9	90	0.00	30.136 
15:35	60.5	60.5	60.5	28	27.2	2	5	112	0.00	30.136 
15:40	60.5	60.5	60.5	28	27.2	3	6	112	0.00	30.136 
15:45	60.2	60.2	60.2	28	27.0	3	5	112	0.00	30.137 
15:50	60.2	60.2	60.2	27	26.1	3	9	112	0.00	30.137 
15:55	60.1	60.1	60.1	28	26.9	3	7	112	0.00	30.137 
16:00	59.9	59.9	59.9	28	26.7	2	6	90	0.00	30.133 
16:05	59.9	59.9	59.9	27	25.8	4	9	90	0.00	30.133 
16:10	60.1	60.1	60.1	28	26.9	2	8	112	0.00	30.133 
16:15	60.1	60.1	60.1	26	25.1	2	6	112	0.00	30.129 
16:20	59.9	59.9	59.9	29	27.6	2	5	112	0.00	30.129 
16:25	60.2	60.2	60.2	28	27.0	1	3	90	0.00	30.129 
16:30	60.4	60.4	60.4	30	28.8	0	2	112	0.00	30.127 
16:35	60.5	60.5	60.5	27	26.4	1	3	68	0.00	30.127 
16:40	60.7	60.7	60.7	27	26.5	1	7	0	0.00	30.127 
16:45	60.5	60.5	60.5	27	26.4	2	5	90	0.00	30.125 
16:50	60.5	60.5	60.5	31	29.7	0	2	45	0.00	30.125 
16:55	60.5	60.5	60.5	28	27.2	1	3	45	0.00	30.125 
17:00	60.4	60.4	60.4	28	27.1	2	5	112	0.00	30.124 
17:05	60.4	60.4	60.4	28	27.1	1	5	90	0.00	30.124 
17:10	60.4	60.4	60.4	28	27.1	1	4	112	0.00	30.124 
17:15	60.4	60.4	60.4	28	27.1	1	5	112	0.00	30.123 
17:20	60.2	60.2	60.2	28	27.0	1	4	90	0.00	30.123 
17:25	60.4	60.4	60.4	30	28.8	1	2	90	0.00	30.123 
17:30	60.2	60.2	60.2	28	27.0	1	5	112	0.00	30.123 
17:35	59.9	59.9	59.9	28	26.7	0	3	112	0.00	30.123 
17:40	59.9	59.9	59.9	27	25.8	0	3	112	0.00	30.123 
17:45	59.9	59.9	59.9	28	26.7	1	3	112	0.00	30.124 
17:50	59.9	59.9	59.9	30	28.4	2	5	90	0.00	30.124 
17:55	59.8	59.8	59.8	31	29.1	1	5	112	0.00	30.124 
18:00	59.8	59.8	59.8	31	29.1	0	2	112	0.00	30.125 
18:05	59.6	59.6	59.6	29	27.3	0	1	112	0.00	30.125 
18:10	59.5	59.5	59.5	31	28.8	1	4	90	0.00	30.125 
18:15	59.3	59.3	59.3	31	28.7	2	4	90	0.00	30.125 
18:20	59.2	59.2	59.2	32	29.4	1	4	90	0.00	30.125 
18:25	59.0	59.0	59.0	34	30.7	1	4	112	0.00	30.125 
18:30	58.7	58.7	58.7	34	30.4	3	7	90	0.00	30.125 
18:35	58.7	58.7	58.7	33	29.7	2	6	90	0.00	30.125 
18:40	58.6	58.6	58.6	33	29.6	2	7	90	0.00	30.125 
18:45	58.4	58.4	58.4	33	29.4	2	6	90	0.00	30.127 
18:50	58.3	58.3	58.3	34	30.1	2	6	90	0.00	30.127 
18:55	58.1	58.1	58.1	34	29.9	3	5	90	0.00	30.127 
19:00	57.8	57.8	57.8	34	29.6	2	5	112	0.00	30.127 
19:05	57.6	57.6	57.6	34	29.4	2	7	90	0.00	30.127 
19:10	57.3	57.3	57.3	35	29.9	2	4	112	0.00	30.127 
19:15	57.0	57.0	57.0	36	30.3	2	4	90	0.00	30.132 
19:20	56.9	56.9	56.9	36	30.2	1	4	90	0.00	30.132 
19:25	56.6	56.6	56.6	37	30.6	1	3	90	0.00	30.132 
19:30	56.3	56.3	56.3	39	31.7	1	3	90	0.00	30.137 
19:35	55.9	55.9	55.9	39	31.3	0	2	90	0.00	30.137 
19:40	55.4	55.4	55.4	40	31.5	0	0	---	0.00	30.137 
19:45	55.0	55.0	55.0	40	31.1	0	0	---	0.00	30.139 
19:50	54.4	54.4	54.4	41	31.2	0	0	---	0.00	30.139 
19:55	53.6	53.6	53.6	42	31.1	0	0	---	0.00	30.139 
20:00	52.8	52.8	52.8	43	30.9	0	0	---	0.00	30.142 
20:05	52.2	52.2	52.2	45	31.5	0	0	---	0.00	30.142 
20:10	51.4	51.4	51.4	46	31.3	0	0	---	0.00	30.142 
20:15	50.8	50.8	50.8	47	31.3	0	0	---	0.00	30.143 
20:20	50.2	50.2	50.2	49	31.8	0	0	---	0.00	30.143 
20:25	49.8	49.8	49.8	50	31.9	0	0	---	0.00	30.143 
20:30	49.4	49.4	49.4	51	32.0	0	0	---	0.00	30.146 
20:35	48.8	48.8	48.8	52	32.0	0	0	---	0.00	30.146 
20:40	48.2	48.2	48.2	54	32.3	0	0	---	0.00	30.146 
20:45	47.7	47.7	47.7	55	32.3	0	0	---	0.00	30.151 
20:50	47.3	47.3	47.3	57	32.8	0	0	---	0.00	30.151 
20:55	46.8	46.8	46.8	58	32.8	0	0	---	0.00	30.151 
21:00	46.5	46.5	46.5	58	32.5	0	0	---	0.00	30.158 
21:05	46.1	46.1	46.1	59	32.6	0	0	---	0.00	30.158 
21:10	45.7	45.7	45.7	60	32.6	0	0	---	0.00	30.158 
21:15	45.2	45.2	45.2	61	32.6	0	0	---	0.00	30.156 
21:20	44.6	44.6	44.6	62	32.4	0	0	---	0.00	30.156 
21:25	44.3	44.3	44.3	62	32.1	0	0	---	0.00	30.156 
21:30	43.9	43.9	43.9	62	31.7	0	0	---	0.00	30.159 
21:35	43.8	43.8	43.8	61	31.2	0	0	---	0.00	30.159 
21:40	43.6	43.6	43.6	62	31.5	0	0	---	0.00	30.159 
21:45	43.5	43.5	43.5	62	31.4	0	0	---	0.00	30.160 
21:50	43.3	43.3	43.3	62	31.2	0	0	---	0.00	30.160 
21:55	43.2	43.2	43.2	61	30.7	0	0	---	0.00	30.160 
22:00	43.2	43.2	43.2	60	30.3	0	0	---	0.00	30.160 
22:05	43.1	43.1	43.1	60	30.2	0	0	---	0.00	30.160 
22:10	42.9	42.9	42.9	61	30.4	0	0	---	0.00	30.160 
22:15	42.8	42.8	42.8	60	29.9	0	0	---	0.00	30.154 
22:20	42.8	42.8	42.8	60	29.9	0	0	---	0.00	30.154 
22:25	42.6	42.6	42.6	59	29.3	0	0	---	0.00	30.154 
22:30	42.5	42.5	42.5	59	29.2	0	0	---	0.00	30.154 
22:35	42.2	42.2	42.2	58	28.5	0	0	---	0.00	30.154 
22:40	42.1	42.1	42.1	61	29.6	0	0	---	0.00	30.154 
22:45	41.8	41.8	41.8	61	29.4	0	0	---	0.00	30.154 
22:50	41.5	41.5	41.5	62	29.5	0	0	---	0.00	30.154 
22:55	41.2	41.2	41.2	62	29.2	0	0	---	0.00	30.154 
23:00	40.9	40.9	40.9	62	28.9	0	0	---	0.00	30.155 
23:05	40.5	40.5	40.5	62	28.5	0	0	---	0.00	30.155 
23:10	40.1	40.1	40.1	63	28.5	0	0	---	0.00	30.155 
23:15	39.8	39.8	39.8	63	28.2	0	0	---	0.00	30.152 
23:20	39.5	39.5	39.5	64	28.3	0	0	---	0.00	30.152 
23:25	39.2	39.2	39.2	65	28.4	0	0	---	0.00	30.152 
23:30	38.9	38.9	38.9	65	28.2	0	0	---	0.00	30.151 
23:35	38.8	38.8	38.8	67	28.8	0	0	---	0.00	30.151 
23:40	38.6	38.6	38.6	68	29.0	0	0	---	0.00	30.151 
23:45	38.5	38.5	38.5	69	29.2	0	0	---	0.00	30.148 
23:50	38.3	38.3	38.3	70	29.4	0	0	---	0.00	30.148 
23:55	38.2	38.2	38.2	72	30.0	0	0	---	0.00	30.148 

CoCoRaHS
IN-AL-39
A2 Web Hosting
Creative Commons License
GoDaddy
search engine by freefind advanced

loaded 2018-11-16 00:25:25 • last modified 2010-11-18 10:43:29
Privacy PolicyDisclaimer
• wx.awcolley.com is powered by PmWiki v.2002016 •
• all content (unless otherwise noted) © 2018 A W Colley